createdAt,value
2016-12-31T00:00:21.280Z,0
2016-12-31T00:01:20.940Z,0
2016-12-31T00:02:21.096Z,0
2016-12-31T00:03:21.081Z,0
2016-12-31T00:04:21.313Z,0
2016-12-31T00:05:21.002Z,0
2016-12-31T00:06:21.560Z,0
2016-12-31T00:07:21.011Z,0
2016-12-31T00:08:21.194Z,0
2016-12-31T00:09:21.078Z,0
2016-12-31T00:10:21.091Z,0
2016-12-31T00:11:21.272Z,0
2016-12-31T00:12:21.208Z,0
2016-12-31T00:13:20.962Z,0
2016-12-31T00:14:21.050Z,0
2016-12-31T00:15:21.358Z,0
2016-12-31T00:16:21.276Z,0
2016-12-31T00:17:21.268Z,0
2016-12-31T00:18:20.939Z,0
2016-12-31T00:19:20.954Z,0
2016-12-31T00:20:20.976Z,0
2016-12-31T00:21:20.940Z,0
2016-12-31T00:22:20.948Z,0
2016-12-31T00:23:20.924Z,0
2016-12-31T00:24:20.971Z,0
2016-12-31T00:25:20.953Z,0
2016-12-31T00:26:20.994Z,0
2016-12-31T00:27:20.967Z,0
2016-12-31T00:28:20.936Z,0
2016-12-31T00:29:29.236Z,0
2016-12-31T00:30:28.602Z,0
2016-12-31T00:31:28.422Z,0
2016-12-31T00:32:22.903Z,0
2016-12-31T00:33:23.440Z,0
2016-12-31T00:34:29.651Z,0
2016-12-31T00:35:28.995Z,0
2016-12-31T00:36:30.530Z,0
2016-12-31T00:37:33.335Z,0
2016-12-31T00:38:30.472Z,0
2016-12-31T00:39:30.932Z,0
2016-12-31T00:40:31.521Z,0
2016-12-31T00:41:31.761Z,0
2016-12-31T00:42:30.396Z,0
2016-12-31T00:43:31.779Z,0
2016-12-31T00:44:31.176Z,0
2016-12-31T00:45:27.646Z,0
2016-12-31T00:46:27.306Z,0
2016-12-31T00:47:27.714Z,0
2016-12-31T00:48:28.971Z,0
2016-12-31T00:49:30.372Z,0
2016-12-31T00:50:30.908Z,0
2016-12-31T00:51:30.238Z,0
2016-12-31T00:52:30.644Z,0
2016-12-31T00:53:29.586Z,0
2016-12-31T00:54:29.047Z,0
2016-12-31T00:55:30.167Z,0
2016-12-31T00:56:30.159Z,0
2016-12-31T00:57:28.694Z,0
2016-12-31T00:58:21.575Z,0
2016-12-31T00:59:20.992Z,0
2016-12-31T01:00:20.987Z,0
2016-12-31T01:01:20.976Z,0
2016-12-31T01:02:21.013Z,0
2016-12-31T01:03:21.003Z,0
2016-12-31T01:04:20.994Z,0
2016-12-31T01:05:21.018Z,0
2016-12-31T01:06:21.000Z,0
2016-12-31T01:07:21.012Z,0
2016-12-31T01:08:20.986Z,0
2016-12-31T01:09:20.962Z,0
2016-12-31T01:10:21.004Z,0
2016-12-31T01:11:20.962Z,0
2016-12-31T01:12:20.959Z,0
2016-12-31T01:13:20.959Z,0
2016-12-31T01:14:20.994Z,0
2016-12-31T01:15:21.019Z,0
2016-12-31T01:16:20.989Z,0
2016-12-31T01:17:21.003Z,0
2016-12-31T01:18:20.995Z,0
2016-12-31T01:19:20.985Z,0
2016-12-31T01:20:20.995Z,0
2016-12-31T01:21:20.972Z,0
2016-12-31T01:22:21.007Z,0
2016-12-31T01:23:21.005Z,0
2016-12-31T01:24:20.969Z,0
2016-12-31T01:25:20.999Z,0
2016-12-31T01:26:20.987Z,0
2016-12-31T01:27:20.991Z,0
2016-12-31T01:28:21.015Z,0
2016-12-31T01:29:21.008Z,0
2016-12-31T01:30:21.048Z,0
2016-12-31T01:31:21.002Z,0
2016-12-31T01:32:20.997Z,0
2016-12-31T01:33:21.005Z,0
2016-12-31T01:34:21.018Z,0
2016-12-31T01:35:20.992Z,0
2016-12-31T01:36:21.028Z,0
2016-12-31T01:37:20.991Z,0
2016-12-31T01:38:21.002Z,0
2016-12-31T01:39:21.020Z,0
2016-12-31T01:40:21.039Z,0
2016-12-31T01:41:22.011Z,0
2016-12-31T01:42:21.024Z,0
2016-12-31T01:43:20.998Z,0
2016-12-31T01:44:21.014Z,0
2016-12-31T01:45:21.017Z,0
2016-12-31T01:46:20.997Z,0
2016-12-31T01:47:20.988Z,0
2016-12-31T01:48:21.009Z,0
2016-12-31T01:49:21.000Z,0
2016-12-31T01:50:21.022Z,0
2016-12-31T01:51:20.999Z,0
2016-12-31T01:52:21.020Z,0
2016-12-31T01:53:20.998Z,0
2016-12-31T01:54:21.023Z,0
2016-12-31T01:55:21.011Z,0
2016-12-31T01:56:20.987Z,0
2016-12-31T01:57:21.004Z,0
2016-12-31T01:58:20.989Z,0
2016-12-31T01:59:21.020Z,0
2016-12-31T02:00:21.035Z,0
2016-12-31T02:01:20.995Z,0
2016-12-31T02:02:21.015Z,0
2016-12-31T02:03:21.004Z,0
2016-12-31T02:04:21.047Z,0
2016-12-31T02:05:21.025Z,0
2016-12-31T02:06:21.000Z,0
2016-12-31T02:07:21.008Z,0
2016-12-31T02:08:21.031Z,0
2016-12-31T02:09:21.036Z,0
2016-12-31T02:10:21.073Z,0
2016-12-31T02:11:21.048Z,0
2016-12-31T02:12:21.028Z,0
2016-12-31T02:13:21.016Z,0
2016-12-31T02:14:21.022Z,0
2016-12-31T02:15:21.053Z,0
2016-12-31T02:16:20.996Z,0
2016-12-31T02:17:21.043Z,0
2016-12-31T02:18:21.040Z,0
2016-12-31T02:19:21.067Z,0
2016-12-31T02:20:21.082Z,0
2016-12-31T02:21:21.027Z,0
2016-12-31T02:22:21.038Z,0
2016-12-31T02:23:21.021Z,0
2016-12-31T02:24:21.044Z,0
2016-12-31T02:25:21.044Z,0
2016-12-31T02:26:21.010Z,0
2016-12-31T02:27:21.019Z,0
2016-12-31T02:28:21.008Z,0
2016-12-31T02:29:21.014Z,0
2016-12-31T02:30:21.036Z,0
2016-12-31T02:31:20.997Z,0
2016-12-31T02:32:21.023Z,0
2016-12-31T02:33:21.013Z,0
2016-12-31T02:34:21.005Z,0
2016-12-31T02:35:21.031Z,0
2016-12-31T02:36:21.032Z,0
2016-12-31T02:37:21.023Z,0
2016-12-31T02:38:21.043Z,0
2016-12-31T02:39:21.026Z,0
2016-12-31T02:40:21.074Z,0
2016-12-31T02:41:21.062Z,0
2016-12-31T02:42:21.060Z,0
2016-12-31T02:43:21.081Z,0
2016-12-31T02:44:21.068Z,0
2016-12-31T02:45:21.044Z,0
2016-12-31T02:46:21.036Z,0
2016-12-31T02:47:21.052Z,0
2016-12-31T02:48:21.071Z,0
2016-12-31T02:49:21.057Z,0
2016-12-31T02:50:21.043Z,0
2016-12-31T02:51:21.035Z,0
2016-12-31T02:52:21.023Z,0
2016-12-31T02:53:21.028Z,0
2016-12-31T02:54:21.036Z,0
2016-12-31T02:55:21.029Z,0
2016-12-31T02:56:21.023Z,0
2016-12-31T02:57:21.014Z,0
2016-12-31T02:58:21.036Z,0
2016-12-31T02:59:21.042Z,0
2016-12-31T03:00:21.050Z,0
2016-12-31T03:01:21.027Z,0
2016-12-31T03:02:21.015Z,0
2016-12-31T03:03:21.026Z,0
2016-12-31T03:04:21.028Z,0
2016-12-31T03:05:21.079Z,0
2016-12-31T03:06:21.027Z,0
2016-12-31T03:07:21.034Z,0
2016-12-31T03:08:21.056Z,0
2016-12-31T03:09:21.021Z,0
2016-12-31T03:10:21.055Z,0
2016-12-31T03:11:21.046Z,0
2016-12-31T03:12:21.038Z,0
2016-12-31T03:13:21.046Z,0
2016-12-31T03:14:21.051Z,0
2016-12-31T03:15:21.058Z,0
2016-12-31T03:16:21.036Z,0
2016-12-31T03:17:21.050Z,0
2016-12-31T03:18:21.044Z,0
2016-12-31T03:19:21.071Z,0
2016-12-31T03:20:21.120Z,0
2016-12-31T03:21:21.086Z,0
2016-12-31T03:22:21.068Z,0
2016-12-31T03:23:21.049Z,0
2016-12-31T03:24:21.080Z,0
2016-12-31T03:25:21.056Z,0
2016-12-31T03:26:21.034Z,0
2016-12-31T03:27:21.086Z,0
2016-12-31T03:28:21.030Z,0
2016-12-31T03:29:21.040Z,0
2016-12-31T03:30:21.077Z,0
2016-12-31T03:31:21.038Z,0
2016-12-31T03:32:21.057Z,0
2016-12-31T03:33:21.052Z,0
2016-12-31T03:34:21.044Z,0
2016-12-31T03:35:21.079Z,0
2016-12-31T03:36:21.054Z,0
2016-12-31T03:37:21.071Z,0
2016-12-31T03:38:21.054Z,0
2016-12-31T03:39:21.046Z,0
2016-12-31T03:40:21.053Z,0
2016-12-31T03:41:21.060Z,0
2016-12-31T03:42:21.052Z,0
2016-12-31T03:43:21.059Z,0
2016-12-31T03:44:21.082Z,0
2016-12-31T03:45:21.088Z,0
2016-12-31T03:46:21.100Z,0
2016-12-31T03:47:21.058Z,0
2016-12-31T03:48:21.056Z,0
2016-12-31T03:49:21.089Z,0
2016-12-31T03:50:21.081Z,0
2016-12-31T03:51:21.071Z,0
2016-12-31T03:52:21.066Z,0
2016-12-31T03:53:21.056Z,0
2016-12-31T03:54:21.049Z,0
2016-12-31T03:55:21.072Z,0
2016-12-31T03:56:21.061Z,0
2016-12-31T03:57:21.053Z,0
2016-12-31T03:58:21.059Z,0
2016-12-31T03:59:21.067Z,0
2016-12-31T04:00:21.073Z,0
2016-12-31T04:01:22.047Z,0
2016-12-31T04:02:21.088Z,0
2016-12-31T04:03:21.081Z,0
2016-12-31T04:04:21.088Z,0
2016-12-31T04:05:21.111Z,0
2016-12-31T04:06:21.073Z,0
2016-12-31T04:07:21.082Z,0
2016-12-31T04:08:21.087Z,0
2016-12-31T04:09:21.091Z,0
2016-12-31T04:10:21.084Z,0
2016-12-31T04:11:21.116Z,0
2016-12-31T04:12:21.103Z,0
2016-12-31T04:13:21.105Z,0
2016-12-31T04:14:21.103Z,0
2016-12-31T04:15:21.139Z,0
2016-12-31T04:16:21.099Z,0
2016-12-31T04:17:21.085Z,0
2016-12-31T04:18:21.100Z,0
2016-12-31T04:19:21.077Z,0
2016-12-31T04:20:21.085Z,0
2016-12-31T04:21:21.075Z,0
2016-12-31T04:22:21.081Z,0
2016-12-31T04:23:21.093Z,0
2016-12-31T04:24:21.081Z,0
2016-12-31T04:25:21.135Z,0
2016-12-31T04:26:21.109Z,0
2016-12-31T04:27:21.162Z,0
2016-12-31T04:28:21.118Z,0
2016-12-31T04:29:21.106Z,0
2016-12-31T04:30:21.136Z,0
2016-12-31T04:31:21.085Z,0
2016-12-31T04:32:21.091Z,0
2016-12-31T04:33:21.109Z,0
2016-12-31T04:34:21.117Z,0
2016-12-31T04:35:21.127Z,0
2016-12-31T04:36:21.109Z,0
2016-12-31T04:37:21.090Z,0
2016-12-31T04:38:21.096Z,0
2016-12-31T04:39:21.102Z,0
2016-12-31T04:40:21.125Z,0
2016-12-31T04:41:21.102Z,0
2016-12-31T04:42:21.110Z,0
2016-12-31T04:43:21.108Z,0
2016-12-31T04:44:21.090Z,0
2016-12-31T04:45:21.122Z,0
2016-12-31T04:46:21.094Z,0
2016-12-31T04:47:21.103Z,0
2016-12-31T04:48:21.122Z,0
2016-12-31T04:49:21.128Z,0
2016-12-31T04:50:21.129Z,0
2016-12-31T04:51:21.135Z,0
2016-12-31T04:52:21.134Z,0
2016-12-31T04:53:21.134Z,0
2016-12-31T04:54:21.166Z,0
2016-12-31T04:55:21.155Z,0
2016-12-31T04:56:21.147Z,0
2016-12-31T04:57:21.159Z,0
2016-12-31T04:58:21.166Z,0
2016-12-31T04:59:21.158Z,0
2016-12-31T05:00:21.185Z,0
2016-12-31T05:01:21.162Z,0
2016-12-31T05:02:21.172Z,0
2016-12-31T05:03:21.121Z,0
2016-12-31T05:04:21.141Z,0
2016-12-31T05:05:21.133Z,0
2016-12-31T05:06:21.127Z,0
2016-12-31T05:07:21.118Z,0
2016-12-31T05:08:21.138Z,0
2016-12-31T05:09:21.089Z,0
2016-12-31T05:10:21.124Z,0
2016-12-31T05:11:21.126Z,0
2016-12-31T05:12:21.174Z,0
2016-12-31T05:13:21.138Z,0
2016-12-31T05:14:21.101Z,0
2016-12-31T05:15:21.150Z,0
2016-12-31T05:16:21.123Z,0
2016-12-31T05:17:21.111Z,0
2016-12-31T05:18:21.168Z,0
2016-12-31T05:19:21.155Z,0
2016-12-31T05:20:21.170Z,0
2016-12-31T05:21:21.150Z,0
2016-12-31T05:22:21.143Z,0
2016-12-31T05:23:21.138Z,0
2016-12-31T05:24:21.125Z,0
2016-12-31T05:25:21.144Z,0
2016-12-31T05:26:21.169Z,0
2016-12-31T05:27:21.144Z,0
2016-12-31T05:28:21.180Z,0
2016-12-31T05:29:21.158Z,0
2016-12-31T05:30:21.211Z,0
2016-12-31T05:31:21.148Z,0
2016-12-31T05:32:21.161Z,0
2016-12-31T05:33:21.167Z,0
2016-12-31T05:34:21.144Z,0
2016-12-31T05:35:21.218Z,0
2016-12-31T05:36:21.195Z,0
2016-12-31T05:37:21.228Z,0
2016-12-31T05:38:21.168Z,0
2016-12-31T05:39:21.180Z,0
2016-12-31T05:40:21.137Z,0
2016-12-31T05:41:21.113Z,0
2016-12-31T05:42:21.142Z,0
2016-12-31T05:43:21.171Z,0
2016-12-31T05:44:21.148Z,0
2016-12-31T05:45:21.959Z,0
2016-12-31T05:46:21.140Z,0
2016-12-31T05:47:21.149Z,0
2016-12-31T05:48:21.154Z,0
2016-12-31T05:49:21.128Z,0
2016-12-31T05:50:21.125Z,0
2016-12-31T05:51:21.154Z,0
2016-12-31T05:52:21.173Z,0
2016-12-31T05:53:21.138Z,0
2016-12-31T05:54:21.138Z,0
2016-12-31T05:55:21.163Z,0
2016-12-31T05:56:21.112Z,0
2016-12-31T05:57:21.152Z,0
2016-12-31T05:58:21.129Z,0
2016-12-31T05:59:21.121Z,0
2016-12-31T06:00:21.182Z,0
2016-12-31T06:01:21.144Z,0
2016-12-31T06:02:21.140Z,0
2016-12-31T06:03:21.117Z,0
2016-12-31T06:04:21.133Z,0
2016-12-31T06:05:21.119Z,0
2016-12-31T06:06:21.131Z,0
2016-12-31T06:07:21.131Z,0
2016-12-31T06:08:21.140Z,0
2016-12-31T06:09:21.129Z,0
2016-12-31T06:10:21.136Z,0
2016-12-31T06:11:21.129Z,0
2016-12-31T06:12:21.134Z,0
2016-12-31T06:13:21.125Z,0
2016-12-31T06:14:21.135Z,0
2016-12-31T06:15:21.139Z,0
2016-12-31T06:16:21.148Z,0
2016-12-31T06:17:21.138Z,0
2016-12-31T06:18:21.148Z,0
2016-12-31T06:19:21.175Z,0
2016-12-31T06:20:21.144Z,0
2016-12-31T06:21:21.157Z,0
2016-12-31T06:22:21.143Z,0
2016-12-31T06:23:21.157Z,0
2016-12-31T06:24:21.134Z,0
2016-12-31T06:25:21.135Z,0
2016-12-31T06:26:21.175Z,0
2016-12-31T06:27:21.227Z,0
2016-12-31T06:28:21.172Z,0
2016-12-31T06:29:21.147Z,0
2016-12-31T06:30:21.176Z,0
2016-12-31T06:31:21.174Z,0
2016-12-31T06:32:21.175Z,0
2016-12-31T06:33:21.168Z,0
2016-12-31T06:34:21.167Z,0
2016-12-31T06:35:21.180Z,0
2016-12-31T06:36:21.165Z,0
2016-12-31T06:37:21.180Z,0
2016-12-31T06:38:21.179Z,0
2016-12-31T06:39:21.178Z,0
2016-12-31T06:40:21.193Z,0
2016-12-31T06:41:21.166Z,0
2016-12-31T06:42:21.167Z,0
2016-12-31T06:43:21.184Z,0
2016-12-31T06:44:21.170Z,0
2016-12-31T06:45:21.184Z,0
2016-12-31T06:46:21.224Z,0
2016-12-31T06:47:21.163Z,0
2016-12-31T06:48:21.177Z,0
2016-12-31T06:49:21.164Z,0
2016-12-31T06:50:21.166Z,0
2016-12-31T06:51:21.158Z,0
2016-12-31T06:52:21.172Z,0
2016-12-31T06:53:21.176Z,0
2016-12-31T06:54:21.186Z,0
2016-12-31T06:55:21.191Z,0
2016-12-31T06:56:21.162Z,4
2016-12-31T06:57:21.191Z,4
2016-12-31T06:58:21.193Z,4
2016-12-31T06:59:21.180Z,0
2016-12-31T07:00:21.186Z,4
2016-12-31T07:01:21.151Z,4
2016-12-31T07:02:21.192Z,4
2016-12-31T07:03:21.175Z,0
2016-12-31T07:04:21.174Z,4
2016-12-31T07:05:21.208Z,4
2016-12-31T07:06:21.186Z,4
2016-12-31T07:07:21.263Z,8
2016-12-31T07:08:21.196Z,4
2016-12-31T07:09:21.194Z,8
2016-12-31T07:10:21.184Z,8
2016-12-31T07:11:21.194Z,8
2016-12-31T07:12:21.196Z,8
2016-12-31T07:13:21.174Z,16
2016-12-31T07:14:21.171Z,12
2016-12-31T07:15:21.182Z,16
2016-12-31T07:16:21.205Z,20
2016-12-31T07:17:21.185Z,20
2016-12-31T07:18:21.237Z,24
2016-12-31T07:19:21.205Z,28
2016-12-31T07:20:21.205Z,32
2016-12-31T07:21:21.202Z,36
2016-12-31T07:22:21.212Z,40
2016-12-31T07:23:21.189Z,44
2016-12-31T07:24:21.221Z,44
2016-12-31T07:25:21.190Z,52
2016-12-31T07:26:21.219Z,56
2016-12-31T07:27:21.244Z,68
2016-12-31T07:28:21.231Z,72
2016-12-31T07:29:21.216Z,76
2016-12-31T07:30:21.205Z,84
2016-12-31T07:31:21.187Z,96
2016-12-31T07:32:21.202Z,104
2016-12-31T07:33:21.198Z,116
2016-12-31T07:34:21.191Z,124
2016-12-31T07:35:21.250Z,136
2016-12-31T07:36:21.177Z,144
2016-12-31T07:37:21.196Z,164
2016-12-31T07:38:21.211Z,164
2016-12-31T07:39:21.227Z,180
2016-12-31T07:40:21.226Z,200
2016-12-31T07:41:21.207Z,200
2016-12-31T07:42:21.201Z,216
2016-12-31T07:43:21.217Z,236
2016-12-31T07:44:21.228Z,248
2016-12-31T07:45:21.241Z,248
2016-12-31T07:46:21.223Z,248
2016-12-31T07:47:21.218Z,276
2016-12-31T07:48:21.208Z,296
2016-12-31T07:49:21.231Z,312
2016-12-31T07:50:21.222Z,320
2016-12-31T07:51:21.239Z,360
2016-12-31T07:52:21.205Z,364
2016-12-31T07:53:21.240Z,380
2016-12-31T07:54:21.247Z,404
2016-12-31T07:55:21.241Z,384
2016-12-31T07:56:21.203Z,392
2016-12-31T07:57:21.207Z,428
2016-12-31T07:58:21.229Z,456
2016-12-31T07:59:21.241Z,436
2016-12-31T08:00:21.254Z,464
2016-12-31T08:01:21.716Z,504
2016-12-31T08:02:21.203Z,472
2016-12-31T08:03:21.244Z,508
2016-12-31T08:04:21.222Z,488
2016-12-31T08:05:21.228Z,508
2016-12-31T08:06:21.223Z,536
2016-12-31T08:07:21.215Z,544
2016-12-31T08:08:21.202Z,572
2016-12-31T08:09:21.223Z,620
2016-12-31T08:10:21.230Z,652
2016-12-31T08:11:21.237Z,680
2016-12-31T08:12:21.214Z,708
2016-12-31T08:13:21.252Z,764
2016-12-31T08:14:21.229Z,832
2016-12-31T08:15:21.279Z,800
2016-12-31T08:16:21.223Z,840
2016-12-31T08:17:21.218Z,860
2016-12-31T08:18:21.352Z,880
2016-12-31T08:19:21.260Z,924
2016-12-31T08:20:21.238Z,936
2016-12-31T08:21:21.236Z,916
2016-12-31T08:22:21.227Z,976
2016-12-31T08:23:21.230Z,1012
2016-12-31T08:24:21.235Z,1044
2016-12-31T08:25:21.242Z,1072
2016-12-31T08:26:21.284Z,1032
2016-12-31T08:27:21.260Z,1152
2016-12-31T08:28:21.252Z,1148
2016-12-31T08:29:21.250Z,1152
2016-12-31T08:30:21.266Z,1128
2016-12-31T08:31:21.261Z,1172
2016-12-31T08:32:21.253Z,1232
2016-12-31T08:33:21.290Z,1208
2016-12-31T08:34:21.243Z,1340
2016-12-31T08:35:22.212Z,1512
2016-12-31T08:36:21.250Z,1468
2016-12-31T08:37:21.233Z,1496
2016-12-31T08:38:21.239Z,1380
2016-12-31T08:39:21.255Z,1612
2016-12-31T08:40:21.249Z,1556
2016-12-31T08:41:21.234Z,1668
2016-12-31T08:42:21.237Z,1520
2016-12-31T08:43:21.306Z,1552
2016-12-31T08:44:21.285Z,1668
2016-12-31T08:45:21.247Z,1900
2016-12-31T08:46:21.276Z,1900
2016-12-31T08:47:21.270Z,1908
2016-12-31T08:48:21.238Z,1848
2016-12-31T08:49:21.270Z,1852
2016-12-31T08:50:21.250Z,2032
2016-12-31T08:51:21.242Z,2296
2016-12-31T08:52:21.230Z,2200
2016-12-31T08:53:21.237Z,2176
2016-12-31T08:54:21.251Z,2044
2016-12-31T08:55:21.265Z,2012
2016-12-31T08:56:21.277Z,2072
2016-12-31T08:57:21.257Z,2344
2016-12-31T08:58:21.341Z,2264
2016-12-31T08:59:21.262Z,2348
2016-12-31T09:00:21.272Z,2232
2016-12-31T09:01:21.239Z,2172
2016-12-31T09:02:21.261Z,2212
2016-12-31T09:03:21.279Z,2244
2016-12-31T09:04:21.274Z,2144
2016-12-31T09:05:21.269Z,2308
2016-12-31T09:06:21.301Z,2284
2016-12-31T09:07:21.288Z,2172
2016-12-31T09:08:21.258Z,2116
2016-12-31T09:09:21.279Z,1960
2016-12-31T09:10:21.259Z,2124
2016-12-31T09:11:21.278Z,1968
2016-12-31T09:12:21.269Z,1888
2016-12-31T09:13:21.284Z,1864
2016-12-31T09:14:21.277Z,1924
2016-12-31T09:15:21.291Z,2024
2016-12-31T09:16:21.268Z,1824
2016-12-31T09:17:21.260Z,1836
2016-12-31T09:18:21.267Z,1680
2016-12-31T09:19:21.260Z,1800
2016-12-31T09:20:21.267Z,1676
2016-12-31T09:21:21.261Z,1864
2016-12-31T09:22:21.281Z,1964
2016-12-31T09:23:21.316Z,2228
2016-12-31T09:24:21.266Z,2440
2016-12-31T09:25:21.279Z,2448
2016-12-31T09:26:22.003Z,2300
2016-12-31T09:27:21.391Z,2616
2016-12-31T09:28:21.306Z,2244
2016-12-31T09:29:21.290Z,2336
2016-12-31T09:30:21.301Z,2412
2016-12-31T09:31:21.289Z,2280
2016-12-31T09:32:21.323Z,2336
2016-12-31T09:33:21.321Z,2332
2016-12-31T09:34:21.339Z,2412
2016-12-31T09:35:21.312Z,2840
2016-12-31T09:36:21.291Z,2652
2016-12-31T09:37:21.294Z,2552
2016-12-31T09:38:21.410Z,2372
2016-12-31T09:39:21.283Z,2476
2016-12-31T09:40:21.349Z,2492
2016-12-31T09:41:21.295Z,2580
2016-12-31T09:42:21.314Z,2580
2016-12-31T09:43:21.293Z,3024
2016-12-31T09:44:21.315Z,3136
2016-12-31T09:45:21.288Z,3484
2016-12-31T09:46:21.280Z,3640
2016-12-31T09:47:21.345Z,3912
2016-12-31T09:48:21.308Z,3036
2016-12-31T09:49:21.402Z,2792
2016-12-31T09:50:21.449Z,3016
2016-12-31T09:51:21.862Z,2964
2016-12-31T09:52:21.755Z,3000
2016-12-31T09:53:21.782Z,3124
2016-12-31T09:54:21.705Z,3508
2016-12-31T09:55:21.669Z,3792
2016-12-31T09:56:21.669Z,3920
2016-12-31T09:57:21.680Z,3660
2016-12-31T09:58:21.555Z,3156
2016-12-31T09:59:21.533Z,2744
2016-12-31T10:00:21.597Z,2780
2016-12-31T10:01:21.368Z,2420
2016-12-31T10:02:21.640Z,2228
2016-12-31T10:03:21.429Z,2200
2016-12-31T10:04:21.517Z,2568
2016-12-31T10:05:21.336Z,2956
2016-12-31T10:06:21.574Z,3084
2016-12-31T10:07:21.727Z,3384
2016-12-31T10:08:21.639Z,3300
2016-12-31T10:09:21.557Z,3760
2016-12-31T10:10:21.502Z,3516
2016-12-31T10:11:21.563Z,3552
2016-12-31T10:12:21.630Z,3660
2016-12-31T10:13:21.708Z,3792
2016-12-31T10:14:21.507Z,3928
2016-12-31T10:15:21.519Z,3808
2016-12-31T10:16:21.673Z,3732
2016-12-31T10:17:21.498Z,3688
2016-12-31T10:18:21.520Z,3664
2016-12-31T10:19:21.494Z,4068
2016-12-31T10:20:21.542Z,3968
2016-12-31T10:21:21.646Z,3772
2016-12-31T10:22:21.667Z,3632
2016-12-31T10:23:21.468Z,3732
2016-12-31T10:24:21.585Z,3736
2016-12-31T10:25:21.539Z,3640
2016-12-31T10:26:21.513Z,3564
2016-12-31T10:27:21.621Z,3752
2016-12-31T10:28:21.593Z,3812
2016-12-31T10:29:21.482Z,3888
2016-12-31T10:30:21.580Z,4140
2016-12-31T10:31:21.568Z,3912
2016-12-31T10:32:21.733Z,4188
2016-12-31T10:33:21.697Z,4204
2016-12-31T10:34:21.536Z,3812
2016-12-31T10:35:21.637Z,3732
2016-12-31T10:36:21.680Z,3568
2016-12-31T10:37:21.476Z,3552
2016-12-31T10:38:21.598Z,3616
2016-12-31T10:39:21.603Z,3484
2016-12-31T10:40:21.539Z,3424
2016-12-31T10:41:21.633Z,3516
2016-12-31T10:42:21.615Z,3248
2016-12-31T10:43:21.555Z,3324
2016-12-31T10:44:21.824Z,3216
2016-12-31T10:45:22.254Z,3444
2016-12-31T10:46:21.755Z,3432
2016-12-31T10:47:21.382Z,3452
2016-12-31T10:48:21.467Z,3296
2016-12-31T10:49:21.616Z,3432
2016-12-31T10:50:21.524Z,3548
2016-12-31T10:51:21.603Z,3468
2016-12-31T10:52:21.670Z,3164
2016-12-31T10:53:21.620Z,3268
2016-12-31T10:54:21.643Z,3480
2016-12-31T10:55:21.354Z,3280
2016-12-31T10:56:21.327Z,3192
2016-12-31T10:57:21.323Z,3280
2016-12-31T10:58:21.333Z,3332
2016-12-31T10:59:21.363Z,3352
2016-12-31T11:00:21.441Z,3420
2016-12-31T11:01:21.360Z,3612
2016-12-31T11:02:21.351Z,3396
2016-12-31T11:03:21.347Z,3456
2016-12-31T11:04:21.333Z,3504
2016-12-31T11:05:21.317Z,3656
2016-12-31T11:06:21.337Z,3444
2016-12-31T11:07:21.383Z,3156
2016-12-31T11:08:21.362Z,3332
2016-12-31T11:09:21.395Z,3364
2016-12-31T11:10:21.331Z,3324
2016-12-31T11:11:21.337Z,3348
2016-12-31T11:12:21.330Z,3372
2016-12-31T11:13:21.364Z,3028
2016-12-31T11:14:21.329Z,3004
2016-12-31T11:15:21.357Z,3052
2016-12-31T11:16:21.327Z,3012
2016-12-31T11:17:21.320Z,3248
2016-12-31T11:18:21.326Z,3348
2016-12-31T11:19:21.378Z,3460
2016-12-31T11:20:21.317Z,3312
2016-12-31T11:21:21.339Z,3248
2016-12-31T11:22:21.386Z,3060
2016-12-31T11:23:21.377Z,3104
2016-12-31T11:24:21.404Z,3036
2016-12-31T11:25:21.325Z,2932
2016-12-31T11:26:21.369Z,3000
2016-12-31T11:27:21.359Z,3052
2016-12-31T11:28:21.338Z,3096
2016-12-31T11:29:21.390Z,3144
2016-12-31T11:30:21.339Z,2888
2016-12-31T11:31:21.372Z,2812
2016-12-31T11:32:21.466Z,2892
2016-12-31T11:33:21.373Z,2856
2016-12-31T11:34:21.340Z,2740
2016-12-31T11:35:21.351Z,2700
2016-12-31T11:36:21.345Z,2724
2016-12-31T11:37:21.459Z,2748
2016-12-31T11:38:21.329Z,2804
2016-12-31T11:39:21.335Z,2832
2016-12-31T11:40:21.342Z,2776
2016-12-31T11:41:21.417Z,2876
2016-12-31T11:42:21.351Z,2792
2016-12-31T11:43:21.378Z,2944
2016-12-31T11:44:21.380Z,2884
2016-12-31T11:45:31.431Z,2844
2016-12-31T11:46:21.360Z,2976
2016-12-31T11:47:21.484Z,3016
2016-12-31T11:48:21.378Z,2776
2016-12-31T11:49:21.555Z,3048
2016-12-31T11:50:21.676Z,2968
2016-12-31T11:51:21.403Z,2752
2016-12-31T11:52:21.713Z,2860
2016-12-31T11:53:22.557Z,2992
2016-12-31T11:54:21.599Z,3056
2016-12-31T11:55:21.417Z,3152
2016-12-31T11:56:21.611Z,2868
2016-12-31T11:57:21.504Z,2648
2016-12-31T11:58:21.429Z,2728
2016-12-31T11:59:21.396Z,2820
2016-12-31T12:00:21.438Z,2936
2016-12-31T12:01:21.484Z,2952
2016-12-31T12:02:21.419Z,2796
2016-12-31T12:03:21.529Z,2912
2016-12-31T12:04:21.458Z,2844
2016-12-31T12:05:21.483Z,2920
2016-12-31T12:06:21.341Z,3016
2016-12-31T12:07:21.507Z,3024
2016-12-31T12:08:21.515Z,2816
2016-12-31T12:09:21.496Z,2848
2016-12-31T12:10:21.570Z,2892
2016-12-31T12:11:21.406Z,2724
2016-12-31T12:12:21.428Z,3032
2016-12-31T12:13:21.391Z,3148
2016-12-31T12:14:21.395Z,3084
2016-12-31T12:15:21.560Z,3192
2016-12-31T12:16:21.590Z,3024
2016-12-31T12:17:21.543Z,2880
2016-12-31T12:18:21.478Z,2992
2016-12-31T12:19:21.425Z,2768
2016-12-31T12:20:21.448Z,2820
2016-12-31T12:21:21.423Z,2676
2016-12-31T12:22:21.380Z,2860
2016-12-31T12:23:21.372Z,2616
2016-12-31T12:24:21.378Z,2664
2016-12-31T12:25:21.401Z,2556
2016-12-31T12:26:21.422Z,2656
2016-12-31T12:27:21.369Z,2680
2016-12-31T12:28:21.387Z,2624
2016-12-31T12:29:21.393Z,2552
2016-12-31T12:30:21.386Z,2708
2016-12-31T12:31:21.392Z,2828
2016-12-31T12:32:21.447Z,2772
2016-12-31T12:33:21.376Z,2864
2016-12-31T12:34:21.428Z,2952
2016-12-31T12:35:21.419Z,3128
2016-12-31T12:36:21.393Z,3312
2016-12-31T12:37:21.770Z,2948
2016-12-31T12:38:21.569Z,2920
2016-12-31T12:39:25.656Z,3120
2016-12-31T12:40:30.959Z,3092
2016-12-31T12:41:29.410Z,3032
2016-12-31T12:42:31.343Z,2892
2016-12-31T12:43:30.257Z,3184
2016-12-31T12:44:29.683Z,2988
2016-12-31T12:45:31.179Z,3068
2016-12-31T12:46:30.711Z,2988
2016-12-31T12:47:31.874Z,2840
2016-12-31T12:48:28.925Z,2916
2016-12-31T12:49:22.070Z,2916
2016-12-31T12:50:29.685Z,2664
2016-12-31T12:51:27.098Z,2736
2016-12-31T12:52:21.403Z,2808
2016-12-31T12:53:21.471Z,2688
2016-12-31T12:54:21.440Z,2732
2016-12-31T12:55:21.463Z,2632
2016-12-31T12:56:21.400Z,2676
2016-12-31T12:57:21.401Z,2724
2016-12-31T12:58:21.415Z,2572
2016-12-31T12:59:21.429Z,2432
2016-12-31T13:00:21.474Z,2612
2016-12-31T13:01:21.451Z,2504
2016-12-31T13:02:21.488Z,2472
2016-12-31T13:03:21.435Z,2628
2016-12-31T13:04:21.445Z,2856
2016-12-31T13:05:21.450Z,2828
2016-12-31T13:06:22.277Z,2860
2016-12-31T13:07:21.412Z,2700
2016-12-31T13:08:21.411Z,2652
2016-12-31T13:09:21.417Z,2696
2016-12-31T13:10:21.427Z,2768
2016-12-31T13:11:21.406Z,2812
2016-12-31T13:12:21.420Z,2692
2016-12-31T13:13:21.607Z,2600
2016-12-31T13:14:21.619Z,2692
2016-12-31T13:15:21.710Z,3060
2016-12-31T13:16:21.715Z,2760
2016-12-31T13:17:21.627Z,2708
2016-12-31T13:18:21.758Z,2804
2016-12-31T13:19:21.600Z,2652
2016-12-31T13:20:21.650Z,2848
2016-12-31T13:21:21.621Z,2592
2016-12-31T13:22:21.691Z,2828
2016-12-31T13:23:21.614Z,2416
2016-12-31T13:24:21.727Z,2328
2016-12-31T13:25:21.704Z,2512
2016-12-31T13:26:21.647Z,2576
2016-12-31T13:27:21.670Z,2408
2016-12-31T13:28:21.508Z,2668
2016-12-31T13:29:21.655Z,2528
2016-12-31T13:30:21.814Z,2496
2016-12-31T13:31:21.654Z,2516
2016-12-31T13:32:21.710Z,2380
2016-12-31T13:33:21.895Z,2468
2016-12-31T13:34:21.680Z,2476
2016-12-31T13:35:21.631Z,2424
2016-12-31T13:36:21.729Z,2468
2016-12-31T13:37:21.765Z,2364
2016-12-31T13:38:21.593Z,2248
2016-12-31T13:39:21.736Z,2456
2016-12-31T13:40:21.673Z,2260
2016-12-31T13:41:21.658Z,2284
2016-12-31T13:42:21.868Z,2052
2016-12-31T13:43:21.945Z,2076
2016-12-31T13:44:21.626Z,2132
2016-12-31T13:45:22.272Z,2052
2016-12-31T13:46:21.730Z,1936
2016-12-31T13:47:21.629Z,1976
2016-12-31T13:48:21.883Z,1956
2016-12-31T13:49:21.633Z,1900
2016-12-31T13:50:21.993Z,1792
2016-12-31T13:51:21.801Z,1860
2016-12-31T13:52:22.106Z,1768
2016-12-31T13:53:21.687Z,1692
2016-12-31T13:54:21.665Z,1648
2016-12-31T13:55:21.682Z,1872
2016-12-31T13:56:21.875Z,1884
2016-12-31T13:57:21.655Z,1684
2016-12-31T13:58:21.807Z,1620
2016-12-31T13:59:21.692Z,1804
2016-12-31T14:00:22.424Z,1684
2016-12-31T14:01:21.727Z,1604
2016-12-31T14:02:21.453Z,1608
2016-12-31T14:03:22.509Z,1600
2016-12-31T14:04:21.432Z,1588